createdAt,value
2023-06-29T00:00:02.277Z,56.08
2023-06-29T00:02:33.013Z,56.30
2023-06-29T00:05:00.971Z,56.75
2023-06-29T00:07:28.579Z,57.00
2023-06-29T00:09:56.109Z,57.14
2023-06-29T00:12:23.846Z,57.11
2023-06-29T00:14:51.253Z,56.63
2023-06-29T00:17:18.641Z,56.70
2023-06-29T00:19:48.888Z,56.71
2023-06-29T00:22:17.594Z,57.09
2023-06-29T00:24:45.035Z,57.18
2023-06-29T00:27:13.309Z,57.03
2023-06-29T00:29:42.731Z,56.61
2023-06-29T00:32:11.466Z,56.73
2023-06-29T00:34:39.169Z,56.66
2023-06-29T00:37:07.010Z,56.86
2023-06-29T00:39:35.176Z,57.35
2023-06-29T00:42:03.483Z,57.08
2023-06-29T00:44:30.901Z,57.22
2023-06-29T00:46:58.477Z,57.60
2023-06-29T00:49:26.383Z,57.43
2023-06-29T00:51:54.534Z,57.73
2023-06-29T00:54:22.862Z,58.08
2023-06-29T00:56:50.696Z,57.80
2023-06-29T00:59:18.128Z,58.10
2023-06-29T01:01:46.896Z,58.33
2023-06-29T01:04:18.725Z,58.39
2023-06-29T01:06:58.480Z,59.14
2023-06-29T01:09:26.558Z,58.66
2023-06-29T01:11:54.154Z,58.42
2023-06-29T01:14:22.220Z,58.43
2023-06-29T01:16:51.251Z,58.44
2023-06-29T01:19:26.956Z,57.98
2023-06-29T01:22:02.665Z,58.38
2023-06-29T01:24:39.190Z,57.84
2023-06-29T01:27:09.533Z,58.60
2023-06-29T01:29:37.960Z,58.17
2023-06-29T01:32:08.374Z,58.91
2023-06-29T01:34:37.216Z,58.60
2023-06-29T01:37:19.078Z,59.08
2023-06-29T01:40:01.447Z,58.57
2023-06-29T01:42:33.688Z,58.68
2023-06-29T01:45:02.340Z,58.77
2023-06-29T01:47:30.030Z,59.04
2023-06-29T01:49:57.750Z,60.23
2023-06-29T01:52:25.964Z,59.94
2023-06-29T01:54:54.706Z,59.58
2023-06-29T01:57:23.327Z,59.50
2023-06-29T01:59:53.349Z,60.20
2023-06-29T02:02:20.791Z,59.69
2023-06-29T02:04:49.247Z,59.29
2023-06-29T02:07:16.770Z,59.59
2023-06-29T02:09:44.716Z,59.04
2023-06-29T02:12:13.173Z,59.67
2023-06-29T02:14:40.713Z,59.03
2023-06-29T02:17:08.225Z,59.78
2023-06-29T02:19:36.010Z,59.84
2023-06-29T02:22:03.474Z,59.88
2023-06-29T02:24:32.128Z,59.65
2023-06-29T02:27:00.189Z,59.71
2023-06-29T02:29:27.619Z,60.13
2023-06-29T02:31:55.091Z,60.61
2023-06-29T02:34:23.272Z,60.75
2023-06-29T02:36:50.839Z,60.28
2023-06-29T02:39:18.579Z,61.65
2023-06-29T02:41:46.232Z,60.49
2023-06-29T02:44:13.715Z,60.72
2023-06-29T02:46:41.713Z,59.47
2023-06-29T02:49:09.594Z,61.00
2023-06-29T02:51:37.168Z,61.89
2023-06-29T02:54:04.981Z,60.62
2023-06-29T02:56:32.746Z,60.42
2023-06-29T02:59:00.980Z,60.87
2023-06-29T03:01:28.733Z,60.51
2023-06-29T03:04:00.075Z,60.73
2023-06-29T03:06:27.661Z,60.96
2023-06-29T03:08:57.442Z,60.44
2023-06-29T03:11:25.115Z,61.27
2023-06-29T03:13:52.543Z,61.01
2023-06-29T03:16:19.988Z,59.49
2023-06-29T03:18:47.675Z,60.44
2023-06-29T03:21:18.672Z,60.03
2023-06-29T03:23:47.410Z,58.08
2023-06-29T03:26:15.092Z,58.87
2023-06-29T03:28:42.519Z,58.68
2023-06-29T03:31:09.934Z,58.45
2023-06-29T03:33:37.784Z,58.10
2023-06-29T03:36:06.482Z,58.41
2023-06-29T03:38:33.859Z,58.22
2023-06-29T03:41:01.599Z,58.25
2023-06-29T03:43:29.051Z,58.62
2023-06-29T03:45:59.242Z,57.19
2023-06-29T03:48:29.614Z,58.42
2023-06-29T03:50:58.343Z,57.85
2023-06-29T03:53:25.755Z,56.64
2023-06-29T03:55:53.428Z,55.28
2023-06-29T03:58:20.926Z,55.36
2023-06-29T04:00:48.369Z,54.59
2023-06-29T04:03:16.094Z,54.18
2023-06-29T04:05:44.066Z,54.23
2023-06-29T04:08:11.594Z,53.67
2023-06-29T04:10:39.327Z,53.98
2023-06-29T04:13:06.833Z,52.31
2023-06-29T04:15:34.251Z,52.62
2023-06-29T04:18:02.573Z,51.90
2023-06-29T04:20:30.677Z,51.16
2023-06-29T04:22:58.072Z,52.19
2023-06-29T04:25:25.807Z,51.55
2023-06-29T04:27:53.205Z,50.41
2023-06-29T04:30:20.888Z,49.35
2023-06-29T04:32:48.665Z,49.89
2023-06-29T04:35:16.319Z,50.42
2023-06-29T04:37:43.823Z,49.12
2023-06-29T04:40:13.923Z,47.88
2023-06-29T04:42:49.056Z,49.02
2023-06-29T04:45:19.826Z,47.07
2023-06-29T04:47:49.351Z,46.88
2023-06-29T04:50:17.142Z,46.37
2023-06-29T04:52:44.708Z,47.00
2023-06-29T04:55:12.206Z,45.29
2023-06-29T04:57:39.946Z,44.55
2023-06-29T05:00:12.363Z,46.48
2023-06-29T05:02:40.265Z,46.44
2023-06-29T05:05:08.635Z,46.04
2023-06-29T05:07:36.310Z,45.00
2023-06-29T05:10:04.315Z,43.92
2023-06-29T05:12:31.741Z,42.91
2023-06-29T05:14:59.112Z,42.63
2023-06-29T05:17:27.032Z,44.58
2023-06-29T05:19:54.484Z,44.85
2023-06-29T05:22:21.930Z,44.16
2023-06-29T05:24:49.598Z,43.94
2023-06-29T05:27:17.013Z,45.49
2023-06-29T05:29:44.457Z,46.13
2023-06-29T05:32:12.176Z,45.50
2023-06-29T05:34:39.702Z,45.44
2023-06-29T05:37:07.192Z,46.01
2023-06-29T05:39:35.120Z,45.06
2023-06-29T05:42:02.522Z,45.31
2023-06-29T05:44:30.042Z,45.70
2023-06-29T05:46:59.139Z,46.34
2023-06-29T05:49:26.540Z,47.57
2023-06-29T05:51:54.038Z,48.22
2023-06-29T05:54:21.776Z,47.91
2023-06-29T05:56:49.233Z,47.33
2023-06-29T05:59:16.634Z,47.20
2023-06-29T06:01:44.480Z,46.44
2023-06-29T06:04:12.243Z,46.69
2023-06-29T06:06:40.420Z,47.51
2023-06-29T06:09:07.861Z,47.91
2023-06-29T06:11:35.568Z,46.83
2023-06-29T06:14:03.011Z,47.29
2023-06-29T06:16:30.514Z,46.16
2023-06-29T06:18:58.195Z,46.97
2023-06-29T06:21:25.731Z,46.71
2023-06-29T06:23:54.568Z,47.17
2023-06-29T06:26:22.224Z,45.81
2023-06-29T06:28:50.055Z,45.72
2023-06-29T06:31:32.758Z,44.47
2023-06-29T06:34:02.371Z,45.57
2023-06-29T06:36:33.707Z,45.72
2023-06-29T06:39:01.641Z,45.65
2023-06-29T06:41:29.091Z,45.50
2023-06-29T06:43:56.994Z,45.75
2023-06-29T06:46:24.750Z,45.05
2023-06-29T06:48:52.443Z,45.06
2023-06-29T06:51:19.854Z,45.24
2023-06-29T06:53:48.419Z,45.34
2023-06-29T06:56:15.865Z,46.51
2023-06-29T06:58:43.303Z,45.28
2023-06-29T07:01:11.192Z,45.72
2023-06-29T07:03:38.673Z,43.97
2023-06-29T07:06:06.469Z,44.93
2023-06-29T07:08:36.199Z,46.41
2023-06-29T07:11:04.505Z,46.18
2023-06-29T07:13:32.584Z,46.22
2023-06-29T07:16:00.372Z,45.11
2023-06-29T07:18:27.815Z,44.61
2023-06-29T07:25:56.175Z,43.04
2023-06-29T07:28:23.657Z,44.29
2023-06-29T07:30:52.783Z,43.41
2023-06-29T07:33:20.303Z,44.56
2023-06-29T07:35:47.740Z,45.28
2023-06-29T07:38:16.329Z,44.45
2023-06-29T07:40:43.792Z,43.37
2023-06-29T07:43:11.885Z,43.50
2023-06-29T07:45:39.547Z,45.03
2023-06-29T07:48:07.327Z,43.61
2023-06-29T07:50:34.859Z,43.27
2023-06-29T07:53:02.975Z,44.04
2023-06-29T07:55:30.428Z,43.40
2023-06-29T08:00:28.518Z,44.10
2023-06-29T08:02:56.260Z,44.03
2023-06-29T08:07:55.186Z,43.88
2023-06-29T08:10:23.246Z,44.58
2023-06-29T08:12:50.819Z,42.71
2023-06-29T08:15:18.364Z,43.70
2023-06-29T08:17:47.199Z,42.21
2023-06-29T08:20:14.855Z,44.09
2023-06-29T08:22:46.333Z,42.02
2023-06-29T08:25:14.066Z,42.78
2023-06-29T08:27:42.716Z,42.07
2023-06-29T08:30:10.703Z,44.10
2023-06-29T08:32:38.394Z,43.53
2023-06-29T08:35:06.365Z,42.85
2023-06-29T08:37:33.740Z,42.68
2023-06-29T08:40:01.908Z,42.51
2023-06-29T08:42:29.498Z,42.92
2023-06-29T08:44:57.046Z,43.30
2023-06-29T08:47:25.765Z,42.88
2023-06-29T08:49:57.390Z,42.46
2023-06-29T08:52:27.487Z,43.19
2023-06-29T08:54:55.018Z,42.77
2023-06-29T08:57:22.562Z,42.45
2023-06-29T08:59:51.359Z,43.22
2023-06-29T09:02:19.089Z,43.19
2023-06-29T09:04:46.545Z,43.12
2023-06-29T09:07:17.074Z,41.42
2023-06-29T09:09:44.565Z,42.79
2023-06-29T09:12:12.023Z,43.06
2023-06-29T09:14:44.952Z,42.39
2023-06-29T09:17:17.615Z,42.38
2023-06-29T09:19:55.292Z,42.09
2023-06-29T09:22:23.400Z,41.29
2023-06-29T09:25:07.175Z,42.06
2023-06-29T09:27:37.905Z,40.29
2023-06-29T09:30:07.490Z,42.20
2023-06-29T09:32:41.049Z,41.65
2023-06-29T09:35:09.862Z,41.68
2023-06-29T09:37:37.574Z,41.74
2023-06-29T09:40:10.865Z,41.42
2023-06-29T09:42:39.591Z,42.33
2023-06-29T09:45:15.670Z,41.21
2023-06-29T09:50:23.793Z,41.41
2023-06-29T09:52:55.824Z,42.47
2023-06-29T09:55:30.998Z,43.63
2023-06-29T09:57:58.630Z,40.88
2023-06-29T10:00:28.862Z,39.79
2023-06-29T10:02:57.000Z,42.72
2023-06-29T10:05:24.581Z,42.33
2023-06-29T10:07:54.751Z,41.07
2023-06-29T10:10:24.530Z,42.70
2023-06-29T10:12:56.033Z,40.11
2023-06-29T10:15:26.481Z,40.59
2023-06-29T10:18:04.359Z,39.32
2023-06-29T10:20:34.297Z,39.61
2023-06-29T10:23:04.254Z,38.63
2023-06-29T10:25:34.849Z,41.59
2023-06-29T10:28:02.877Z,40.62
2023-06-29T10:30:30.355Z,39.98
2023-06-29T10:32:58.852Z,39.07
2023-06-29T10:35:27.222Z,40.75
2023-06-29T10:37:58.459Z,38.19
2023-06-29T10:40:27.317Z,39.16
2023-06-29T10:42:56.192Z,40.06
2023-06-29T10:45:23.608Z,40.39
2023-06-29T10:47:57.155Z,38.61
2023-06-29T10:50:26.346Z,38.02
2023-06-29T10:52:59.919Z,37.86
2023-06-29T10:55:30.194Z,37.22
2023-06-29T10:58:02.522Z,38.49
2023-06-29T11:00:29.951Z,37.58
2023-06-29T11:03:00.534Z,38.09
2023-06-29T11:05:29.576Z,40.18
2023-06-29T11:07:57.319Z,39.67
2023-06-29T11:10:25.015Z,38.58
2023-06-29T11:12:55.631Z,37.47
2023-06-29T11:15:23.990Z,39.37
2023-06-29T11:17:52.484Z,40.58
2023-06-29T11:20:21.969Z,39.04
2023-06-29T11:22:52.713Z,38.49
2023-06-29T11:25:20.500Z,37.60
2023-06-29T11:27:48.084Z,38.43
2023-06-29T11:30:15.510Z,39.09
2023-06-29T11:32:43.516Z,39.57
2023-06-29T11:35:11.650Z,38.77
2023-06-29T11:37:40.172Z,39.51
2023-06-29T11:40:24.032Z,41.91
2023-06-29T11:42:51.878Z,39.59
2023-06-29T11:45:19.711Z,38.83
2023-06-29T11:47:52.173Z,38.24
2023-06-29T11:50:19.993Z,39.21
2023-06-29T11:52:47.764Z,38.36
2023-06-29T11:55:16.582Z,39.29
2023-06-29T11:57:51.288Z,39.02
2023-06-29T12:00:18.596Z,38.20
2023-06-29T12:02:46.287Z,37.60
2023-06-29T12:05:14.079Z,36.74
2023-06-29T12:07:45.880Z,35.90
2023-06-29T12:10:26.202Z,38.02
2023-06-29T12:12:57.369Z,36.83
2023-06-29T12:15:26.709Z,37.21
2023-06-29T12:18:10.086Z,36.40
2023-06-29T12:20:43.971Z,36.47
2023-06-29T12:23:13.766Z,37.67
2023-06-29T12:25:49.251Z,37.40
2023-06-29T12:28:16.800Z,37.10
2023-06-29T12:30:45.179Z,36.96
2023-06-29T12:33:14.216Z,35.51
2023-06-29T12:35:43.618Z,37.62
2023-06-29T12:38:12.659Z,37.42
2023-06-29T12:40:40.265Z,38.74
2023-06-29T12:43:07.698Z,35.73
2023-06-29T12:45:35.737Z,37.09
2023-06-29T12:48:04.901Z,34.91
2023-06-29T12:50:32.535Z,37.30
2023-06-29T12:53:00.434Z,34.75
2023-06-29T12:55:27.863Z,35.51
2023-06-29T12:57:55.285Z,36.14
2023-06-29T13:00:23.136Z,35.52
2023-06-29T13:02:53.762Z,36.46
2023-06-29T13:05:21.491Z,35.75
2023-06-29T13:07:49.296Z,34.92
2023-06-29T13:10:16.783Z,36.92
2023-06-29T13:12:44.902Z,36.79
2023-06-29T13:15:12.656Z,35.99
2023-06-29T13:17:40.076Z,34.33
2023-06-29T13:20:07.858Z,34.92
2023-06-29T13:22:35.870Z,35.77
2023-06-29T13:25:03.596Z,36.73
2023-06-29T13:27:31.376Z,34.49
2023-06-29T13:29:59.046Z,34.96
2023-06-29T13:32:26.712Z,35.69
2023-06-29T13:34:54.540Z,36.04
2023-06-29T13:37:23.336Z,36.50
2023-06-29T13:39:50.918Z,33.93
2023-06-29T13:42:18.635Z,35.73
2023-06-29T13:44:47.209Z,34.29
2023-06-29T13:47:23.122Z,33.87
2023-06-29T13:49:51.912Z,33.42
2023-06-29T13:52:19.442Z,33.43
2023-06-29T13:54:46.970Z,35.31
2023-06-29T13:57:14.697Z,35.26
2023-06-29T13:59:42.167Z,34.17
2023-06-29T14:02:09.664Z,34.69
2023-06-29T14:04:37.484Z,33.88
2023-06-29T14:07:05.167Z,34.55
2023-06-29T14:09:34.006Z,33.12
2023-06-29T14:12:01.712Z,35.91
2023-06-29T14:14:29.121Z,34.79
2023-06-29T14:16:56.540Z,33.48
2023-06-29T14:19:24.277Z,34.84
2023-06-29T14:21:51.693Z,32.33
2023-06-29T14:24:19.107Z,32.28
2023-06-29T14:26:46.846Z,32.34
2023-06-29T14:29:14.198Z,33.31
2023-06-29T14:31:41.734Z,33.95
2023-06-29T14:34:09.632Z,34.14
2023-06-29T14:36:37.125Z,33.87
2023-06-29T14:39:04.567Z,34.34
2023-06-29T14:41:34.594Z,34.02
2023-06-29T14:44:05.017Z,34.19
2023-06-29T14:46:32.764Z,34.16
2023-06-29T14:49:00.539Z,32.93
2023-06-29T14:51:27.980Z,34.35
2023-06-29T14:53:55.656Z,33.10
2023-06-29T14:56:23.069Z,33.91
2023-06-29T14:58:50.575Z,32.19
2023-06-29T15:01:18.423Z,34.88
2023-06-29T15:03:46.949Z,34.42
2023-06-29T15:06:16.083Z,34.04
2023-06-29T15:08:43.841Z,35.23
2023-06-29T15:11:11.226Z,32.60
2023-06-29T15:13:38.668Z,33.37
2023-06-29T15:16:07.987Z,34.80
2023-06-29T15:18:43.317Z,34.24
2023-06-29T15:21:18.876Z,33.55
2023-06-29T15:23:46.272Z,34.17
2023-06-29T15:26:13.692Z,33.73
2023-06-29T15:28:41.404Z,33.56
2023-06-29T15:31:09.183Z,34.81
2023-06-29T15:33:36.637Z,34.37
2023-06-29T15:36:04.578Z,31.76
2023-06-29T15:38:32.408Z,34.25
2023-06-29T15:40:59.894Z,34.21
2023-06-29T15:43:27.692Z,33.43
2023-06-29T15:45:55.155Z,33.88
2023-06-29T15:48:22.670Z,33.05
2023-06-29T15:50:50.428Z,32.25
2023-06-29T15:53:17.888Z,34.84
2023-06-29T15:55:45.584Z,33.42
2023-06-29T15:58:13.423Z,34.87
2023-06-29T16:00:40.859Z,34.49
2023-06-29T16:03:09.311Z,34.61
2023-06-29T16:05:36.936Z,34.34
2023-06-29T16:08:04.644Z,34.56
2023-06-29T16:10:32.375Z,34.49
2023-06-29T16:12:59.859Z,34.45
2023-06-29T16:15:28.735Z,34.78
2023-06-29T16:17:58.260Z,34.69
2023-06-29T16:20:25.702Z,34.50
2023-06-29T16:22:53.166Z,34.75
2023-06-29T16:25:24.789Z,35.78
2023-06-29T16:27:52.462Z,35.98
2023-06-29T16:30:20.516Z,34.55
2023-06-29T16:32:48.418Z,35.20
2023-06-29T16:35:16.100Z,35.04
2023-06-29T16:37:46.336Z,35.01
2023-06-29T16:40:14.296Z,35.12
2023-06-29T16:42:41.751Z,35.01
2023-06-29T16:45:09.614Z,35.47
2023-06-29T16:47:38.692Z,35.28
2023-06-29T16:50:06.558Z,36.75
2023-06-29T16:52:34.016Z,37.87
2023-06-29T16:55:01.666Z,36.29
2023-06-29T16:57:29.253Z,37.39
2023-06-29T16:59:56.680Z,35.46
2023-06-29T17:02:24.608Z,34.69
2023-06-29T17:04:52.541Z,37.54
2023-06-29T17:07:22.016Z,37.82
2023-06-29T17:09:49.745Z,39.84
2023-06-29T17:12:17.186Z,38.00
2023-06-29T17:14:44.624Z,40.86
2023-06-29T17:17:12.381Z,40.60
2023-06-29T17:19:40.394Z,39.60
2023-06-29T17:22:11.360Z,41.37
2023-06-29T17:24:40.069Z,41.07
2023-06-29T17:27:08.742Z,40.88
2023-06-29T17:29:37.896Z,41.65
2023-06-29T17:32:06.256Z,41.41
2023-06-29T17:34:34.030Z,41.39
2023-06-29T17:37:03.210Z,41.72
2023-06-29T17:39:31.017Z,41.54
2023-06-29T17:41:59.800Z,42.00
2023-06-29T17:44:27.546Z,41.81
2023-06-29T17:46:56.230Z,42.16
2023-06-29T17:49:28.172Z,42.22
2023-06-29T17:51:56.801Z,42.48
2023-06-29T17:54:25.548Z,42.50
2023-06-29T17:56:53.802Z,42.45
2023-06-29T17:59:22.154Z,42.45
2023-06-29T18:01:51.054Z,42.59
2023-06-29T18:04:20.709Z,42.79
2023-06-29T18:06:48.889Z,42.87
2023-06-29T18:09:16.745Z,42.95
2023-06-29T18:11:44.648Z,42.92
2023-06-29T18:14:12.360Z,42.75
2023-06-29T18:16:40.857Z,42.99
2023-06-29T18:19:09.635Z,43.09
2023-06-29T18:21:37.284Z,42.79
2023-06-29T18:24:06.318Z,42.63
2023-06-29T18:26:35.992Z,42.88
2023-06-29T18:29:04.388Z,42.72
2023-06-29T18:31:32.558Z,42.70
2023-06-29T18:34:02.049Z,43.16
2023-06-29T18:36:30.558Z,43.19
2023-06-29T18:38:59.857Z,43.20
2023-06-29T18:41:35.409Z,43.51
2023-06-29T18:44:04.581Z,43.31
2023-06-29T18:47:09.681Z,43.71
2023-06-29T18:49:50.773Z,43.69
2023-06-29T18:52:21.514Z,43.65
2023-06-29T18:54:51.739Z,43.57
2023-06-29T18:57:19.271Z,43.89
2023-06-29T18:59:48.642Z,44.18
2023-06-29T19:02:16.318Z,44.05
2023-06-29T19:04:43.831Z,44.39
2023-06-29T19:07:12.588Z,44.15
2023-06-29T19:09:40.301Z,44.46
2023-06-29T19:12:08.189Z,44.36
2023-06-29T19:14:36.430Z,44.89
2023-06-29T19:17:05.196Z,44.75
2023-06-29T19:19:34.281Z,44.83
2023-06-29T19:22:03.741Z,45.06
2023-06-29T19:24:31.140Z,45.17
2023-06-29T19:26:58.937Z,45.29
2023-06-29T19:29:26.899Z,45.36
2023-06-29T19:31:56.008Z,45.36
2023-06-29T19:34:23.502Z,45.54
2023-06-29T19:36:52.321Z,45.68
2023-06-29T19:39:20.361Z,45.57
2023-06-29T19:41:47.988Z,45.76
2023-06-29T19:44:16.109Z,45.90
2023-06-29T19:46:43.970Z,45.83
2023-06-29T19:49:11.829Z,45.74
2023-06-29T19:51:40.354Z,46.05
2023-06-29T19:54:08.592Z,45.43
2023-06-29T19:56:37.491Z,45.78
2023-06-29T19:59:05.541Z,45.94
2023-06-29T20:01:34.094Z,45.92
2023-06-29T20:04:03.642Z,45.52
2023-06-29T20:06:31.736Z,45.74
2023-06-29T20:09:01.581Z,45.60
2023-06-29T20:11:30.796Z,45.25
2023-06-29T20:13:59.008Z,45.58
2023-06-29T20:16:26.807Z,45.43
2023-06-29T20:18:55.099Z,45.46
2023-06-29T20:21:23.122Z,46.38
2023-06-29T20:23:52.153Z,46.54
2023-06-29T20:26:20.572Z,46.29
2023-06-29T20:28:49.038Z,47.03
2023-06-29T20:31:17.334Z,47.45
2023-06-29T20:33:46.075Z,47.80
2023-06-29T20:36:14.642Z,48.06
2023-06-29T20:38:43.293Z,48.54
2023-06-29T20:41:12.955Z,49.21
2023-06-29T20:43:47.427Z,49.45
2023-06-29T20:46:19.484Z,49.84
2023-06-29T20:48:47.573Z,50.00
2023-06-29T20:51:18.215Z,50.42
2023-06-29T20:53:46.434Z,50.71
2023-06-29T20:56:14.568Z,50.41
2023-06-29T20:58:43.115Z,50.20
2023-06-29T21:01:10.858Z,50.54
2023-06-29T21:03:39.637Z,50.49
2023-06-29T21:06:07.421Z,50.94
2023-06-29T21:08:35.363Z,51.22
2023-06-29T21:11:03.342Z,51.39
2023-06-29T21:13:31.251Z,51.68
2023-06-29T21:15:58.940Z,51.87
2023-06-29T21:18:26.609Z,51.44
2023-06-29T21:20:54.530Z,51.54
2023-06-29T21:23:22.327Z,51.23
2023-06-29T21:25:50.113Z,51.26
2023-06-29T21:28:18.197Z,51.41
2023-06-29T21:30:46.310Z,51.29
2023-06-29T21:33:14.003Z,51.65
2023-06-29T21:35:44.382Z,51.64
2023-06-29T21:38:12.282Z,51.75
2023-06-29T21:40:40.126Z,51.61
2023-06-29T21:43:07.883Z,51.81
2023-06-29T21:45:35.301Z,51.52
2023-06-29T21:48:02.812Z,51.52
2023-06-29T21:50:30.546Z,51.62
2023-06-29T21:52:58.046Z,51.40
2023-06-29T21:55:26.787Z,51.63
2023-06-29T21:57:57.526Z,51.62
2023-06-29T22:00:25.210Z,51.39
2023-06-29T22:05:43.572Z,51.11
2023-06-29T22:08:32.603Z,51.12
2023-06-29T22:11:21.132Z,50.80
2023-06-29T22:13:49.396Z,51.29
2023-06-29T22:16:21.627Z,51.18
2023-06-29T22:18:52.120Z,51.27
2023-06-29T22:21:22.096Z,51.40
2023-06-29T22:23:51.027Z,51.40
2023-06-29T22:26:19.691Z,51.47
2023-06-29T22:28:47.532Z,51.62
2023-06-29T22:31:18.751Z,51.75
2023-06-29T22:33:47.365Z,51.91
2023-06-29T22:36:19.184Z,52.07
2023-06-29T22:38:46.984Z,51.92
2023-06-29T22:41:14.988Z,51.77
2023-06-29T22:50:02.307Z,51.42
2023-06-29T22:52:30.017Z,51.94
2023-06-29T22:54:57.433Z,52.13
2023-06-29T22:57:26.177Z,52.36
2023-06-29T22:59:56.531Z,52.65
2023-06-29T23:02:24.157Z,53.06
2023-06-29T23:04:53.611Z,52.79
2023-06-29T23:07:23.366Z,53.11
2023-06-29T23:09:50.892Z,52.88
2023-06-29T23:12:22.436Z,52.81
2023-06-29T23:14:52.586Z,53.01
2023-06-29T23:17:26.230Z,53.17
2023-06-29T23:19:54.071Z,53.22
2023-06-29T23:22:22.846Z,53.24
2023-06-29T23:24:53.929Z,53.14
2023-06-29T23:27:21.955Z,53.19
2023-06-29T23:29:54.006Z,52.99
2023-06-29T23:32:22.595Z,53.15
2023-06-29T23:34:50.130Z,53.19
2023-06-29T23:37:17.543Z,52.89
2023-06-29T23:39:45.245Z,52.94
2023-06-29T23:42:12.662Z,52.82
2023-06-29T23:44:41.938Z,53.04
2023-06-29T23:47:11.071Z,52.94
2023-06-29T23:49:38.613Z,52.92
2023-06-29T23:52:10.861Z,52.52
2023-06-29T23:54:38.934Z,52.68
2023-06-29T23:57:07.120Z,52.61
2023-06-29T23:59:34.551Z,52.93
